sensor_id;sensor_type;location;lat;lon;timestamp;P1;durP1;ratioP1;P2;durP2;ratioP2
79751;SDS011;69234;47.446;21.636;2023-07-13T00:00:21;18.63;;;18.63;;
79751;SDS011;69234;47.446;21.636;2023-07-13T00:00:52;19.00;;;19.00;;
79751;SDS011;69234;47.446;21.636;2023-07-13T00:01:23;19.30;;;19.30;;
79751;SDS011;69234;47.446;21.636;2023-07-13T00:01:54;19.53;;;19.53;;
79751;SDS011;69234;47.446;21.636;2023-07-13T00:02:25;19.70;;;19.70;;
79751;SDS011;69234;47.446;21.636;2023-07-13T00:02:57;18.23;;;18.23;;
79751;SDS011;69234;47.446;21.636;2023-07-13T00:03:27;18.23;;;18.23;;
79751;SDS011;69234;47.446;21.636;2023-07-13T00:04:00;17.77;;;17.77;;
79751;SDS011;69234;47.446;21.636;2023-07-13T00:04:31;18.77;;;18.77;;
79751;SDS011;69234;47.446;21.636;2023-07-13T00:05:03;19.23;;;19.23;;
79751;SDS011;69234;47.446;21.636;2023-07-13T00:05:34;18.87;;;18.87;;
79751;SDS011;69234;47.446;21.636;2023-07-13T00:06:05;18.77;;;18.77;;
79751;SDS011;69234;47.446;21.636;2023-07-13T00:06:36;18.40;;;18.40;;
79751;SDS011;69234;47.446;21.636;2023-07-13T00:07:07;18.63;;;18.63;;
79751;SDS011;69234;47.446;21.636;2023-07-13T00:07:39;19.47;;;19.47;;
79751;SDS011;69234;47.446;21.636;2023-07-13T00:08:09;19.27;;;19.27;;
79751;SDS011;69234;47.446;21.636;2023-07-13T00:08:41;19.90;;;19.90;;
79751;SDS011;69234;47.446;21.636;2023-07-13T00:09:13;19.33;;;19.33;;
79751;SDS011;69234;47.446;21.636;2023-07-13T00:09:46;18.80;;;18.80;;
79751;SDS011;69234;47.446;21.636;2023-07-13T00:10:18;19.63;;;19.63;;
79751;SDS011;69234;47.446;21.636;2023-07-13T00:10:51;19.43;;;19.43;;
79751;SDS011;69234;47.446;21.636;2023-07-13T00:11:24;19.40;;;19.40;;
79751;SDS011;69234;47.446;21.636;2023-07-13T00:11:56;19.40;;;19.40;;
79751;SDS011;69234;47.446;21.636;2023-07-13T00:12:29;19.43;;;19.43;;
79751;SDS011;69234;47.446;21.636;2023-07-13T00:13:03;19.27;;;19.27;;
79751;SDS011;69234;47.446;21.636;2023-07-13T00:13:34;18.90;;;18.90;;
79751;SDS011;69234;47.446;21.636;2023-07-13T00:14:05;19.57;;;19.57;;
79751;SDS011;69234;47.446;21.636;2023-07-13T00:14:36;19.50;;;19.50;;
79751;SDS011;69234;47.446;21.636;2023-07-13T00:15:09;19.37;;;19.37;;
79751;SDS011;69234;47.446;21.636;2023-07-13T00:15:53;19.20;;;19.20;;
79751;SDS011;69234;47.446;21.636;2023-07-13T00:16:24;18.07;;;18.07;;
79751;SDS011;69234;47.446;21.636;2023-07-13T00:16:55;18.60;;;18.60;;
79751;SDS011;69234;47.446;21.636;2023-07-13T00:17:26;19.37;;;19.37;;
79751;SDS011;69234;47.446;21.636;2023-07-13T00:17:59;18.73;;;18.73;;
79751;SDS011;69234;47.446;21.636;2023-07-13T00:18:31;18.87;;;18.87;;
79751;SDS011;69234;47.446;21.636;2023-07-13T00:19:02;19.67;;;19.67;;
79751;SDS011;69234;47.446;21.636;2023-07-13T00:19:33;18.77;;;18.77;;
79751;SDS011;69234;47.446;21.636;2023-07-13T00:20:06;18.93;;;18.93;;
79751;SDS011;69234;47.446;21.636;2023-07-13T00:20:38;18.63;;;18.63;;
79751;SDS011;69234;47.446;21.636;2023-07-13T00:21:11;19.23;;;19.23;;
79751;SDS011;69234;47.446;21.636;2023-07-13T00:21:43;19.93;;;19.93;;
79751;SDS011;69234;47.446;21.636;2023-07-13T00:22:14;19.80;;;19.80;;
79751;SDS011;69234;47.446;21.636;2023-07-13T00:22:45;19.10;;;19.10;;
79751;SDS011;69234;47.446;21.636;2023-07-13T00:23:16;19.37;;;19.37;;
79751;SDS011;69234;47.446;21.636;2023-07-13T00:23:48;19.53;;;19.53;;
79751;SDS011;69234;47.446;21.636;2023-07-13T00:24:19;18.87;;;18.87;;
79751;SDS011;69234;47.446;21.636;2023-07-13T00:24:53;18.37;;;18.37;;
79751;SDS011;69234;47.446;21.636;2023-07-13T00:25:27;19.53;;;19.53;;
79751;SDS011;69234;47.446;21.636;2023-07-13T00:25:59;19.80;;;19.80;;
79751;SDS011;69234;47.446;21.636;2023-07-13T00:26:31;18.23;;;18.23;;
79751;SDS011;69234;47.446;21.636;2023-07-13T00:27:02;19.03;;;19.03;;
79751;SDS011;69234;47.446;21.636;2023-07-13T00:27:33;19.60;;;19.60;;
79751;SDS011;69234;47.446;21.636;2023-07-13T00:28:04;18.47;;;18.47;;
79751;SDS011;69234;47.446;21.636;2023-07-13T00:28:36;18.27;;;18.27;;
79751;SDS011;69234;47.446;21.636;2023-07-13T00:29:09;19.63;;;19.63;;
79751;SDS011;69234;47.446;21.636;2023-07-13T00:29:40;18.83;;;18.83;;
79751;SDS011;69234;47.446;21.636;2023-07-13T00:30:11;19.80;;;19.80;;
79751;SDS011;69234;47.446;21.636;2023-07-13T00:30:42;18.70;;;18.70;;
79751;SDS011;69234;47.446;21.636;2023-07-13T00:31:14;19.20;;;19.20;;
79751;SDS011;69234;47.446;21.636;2023-07-13T00:31:45;18.83;;;18.83;;
79751;SDS011;69234;47.446;21.636;2023-07-13T00:32:16;19.50;;;19.50;;
79751;SDS011;69234;47.446;21.636;2023-07-13T00:32:47;19.23;;;19.23;;
79751;SDS011;69234;47.446;21.636;2023-07-13T00:33:18;19.07;;;19.07;;
79751;SDS011;69234;47.446;21.636;2023-07-13T00:33:49;19.07;;;19.07;;
79751;SDS011;69234;47.446;21.636;2023-07-13T00:34:20;19.63;;;19.63;;
79751;SDS011;69234;47.446;21.636;2023-07-13T00:34:53;19.47;;;19.47;;
79751;SDS011;69234;47.446;21.636;2023-07-13T00:35:25;18.27;;;18.27;;
79751;SDS011;69234;47.446;21.636;2023-07-13T00:35:56;18.77;;;18.77;;
79751;SDS011;69234;47.446;21.636;2023-07-13T00:36:29;19.33;;;19.33;;
79751;SDS011;69234;47.446;21.636;2023-07-13T00:37:01;19.47;;;19.47;;
79751;SDS011;69234;47.446;21.636;2023-07-13T00:37:32;18.77;;;18.77;;
79751;SDS011;69234;47.446;21.636;2023-07-13T00:38:05;18.50;;;18.50;;
79751;SDS011;69234;47.446;21.636;2023-07-13T00:38:36;18.23;;;18.23;;
79751;SDS011;69234;47.446;21.636;2023-07-13T00:39:08;19.60;;;19.60;;
79751;SDS011;69234;47.446;21.636;2023-07-13T00:39:39;19.47;;;19.47;;
79751;SDS011;69234;47.446;21.636;2023-07-13T00:40:11;19.17;;;19.17;;
79751;SDS011;69234;47.446;21.636;2023-07-13T00:40:43;19.27;;;19.27;;
79751;SDS011;69234;47.446;21.636;2023-07-13T00:41:14;19.60;;;19.60;;
79751;SDS011;69234;47.446;21.636;2023-07-13T00:41:45;20.20;;;20.20;;
79751;SDS011;69234;47.446;21.636;2023-07-13T00:42:17;20.10;;;20.10;;
79751;SDS011;69234;47.446;21.636;2023-07-13T00:42:47;19.90;;;19.90;;
79751;SDS011;69234;47.446;21.636;2023-07-13T00:43:21;19.00;;;19.00;;
79751;SDS011;69234;47.446;21.636;2023-07-13T00:43:53;20.57;;;20.57;;
79751;SDS011;69234;47.446;21.636;2023-07-13T00:44:24;20.77;;;20.77;;
79751;SDS011;69234;47.446;21.636;2023-07-13T00:46:56;20.30;;;20.30;;
79751;SDS011;69234;47.446;21.636;2023-07-13T00:47:28;20.10;;;20.10;;
79751;SDS011;69234;47.446;21.636;2023-07-13T00:47:59;19.43;;;19.43;;
79751;SDS011;69234;47.446;21.636;2023-07-13T00:48:31;19.47;;;19.47;;
79751;SDS011;69234;47.446;21.636;2023-07-13T00:49:07;19.93;;;19.93;;
79751;SDS011;69234;47.446;21.636;2023-07-13T00:49:46;19.10;;;19.10;;
79751;SDS011;69234;47.446;21.636;2023-07-13T00:50:17;20.07;;;20.07;;
79751;SDS011;69234;47.446;21.636;2023-07-13T00:50:52;19.50;;;19.50;;
79751;SDS011;69234;47.446;21.636;2023-07-13T00:51:31;18.40;;;18.40;;
79751;SDS011;69234;47.446;21.636;2023-07-13T00:52:08;18.77;;;18.77;;
79751;SDS011;69234;47.446;21.636;2023-07-13T00:52:41;19.50;;;19.50;;
79751;SDS011;69234;47.446;21.636;2023-07-13T00:53:16;19.27;;;19.27;;
79751;SDS011;69234;47.446;21.636;2023-07-13T00:53:51;19.87;;;19.87;;
79751;SDS011;69234;47.446;21.636;2023-07-13T00:54:32;19.67;;;19.67;;
79751;SDS011;69234;47.446;21.636;2023-07-13T00:55:11;19.60;;;19.60;;
79751;SDS011;69234;47.446;21.636;2023-07-13T00:55:44;18.60;;;18.60;;
79751;SDS011;69234;47.446;21.636;2023-07-13T00:56:17;19.30;;;19.30;;
79751;SDS011;69234;47.446;21.636;2023-07-13T00:56:49;20.90;;;20.90;;
79751;SDS011;69234;47.446;21.636;2023-07-13T00:57:23;19.80;;;19.80;;
79751;SDS011;69234;47.446;21.636;2023-07-13T00:57:55;19.57;;;19.57;;
79751;SDS011;69234;47.446;21.636;2023-07-13T00:58:26;19.53;;;19.53;;
79751;SDS011;69234;47.446;21.636;2023-07-13T00:58:59;19.57;;;19.57;;
79751;SDS011;69234;47.446;21.636;2023-07-13T00:59:33;20.17;;;20.17;;
79751;SDS011;69234;47.446;21.636;2023-07-13T01:00:06;21.03;;;21.03;;
79751;SDS011;69234;47.446;21.636;2023-07-13T01:00:39;19.33;;;19.33;;
79751;SDS011;69234;47.446;21.636;2023-07-13T01:01:11;19.83;;;19.83;;
79751;SDS011;69234;47.446;21.636;2023-07-13T01:01:43;20.33;;;20.33;;
79751;SDS011;69234;47.446;21.636;2023-07-13T01:02:14;20.73;;;20.73;;
79751;SDS011;69234;47.446;21.636;2023-07-13T01:02:46;19.87;;;19.87;;
79751;SDS011;69234;47.446;21.636;2023-07-13T01:03:19;20.03;;;20.03;;
79751;SDS011;69234;47.446;21.636;2023-07-13T01:03:50;19.50;;;19.50;;
79751;SDS011;69234;47.446;21.636;2023-07-13T01:04:23;18.67;;;18.67;;
79751;SDS011;69234;47.446;21.636;2023-07-13T01:04:56;20.30;;;20.30;;
79751;SDS011;69234;47.446;21.636;2023-07-13T01:05:27;20.10;;;20.10;;
79751;SDS011;69234;47.446;21.636;2023-07-13T01:05:58;19.10;;;19.10;;
79751;SDS011;69234;47.446;21.636;2023-07-13T01:06:30;19.57;;;19.57;;
79751;SDS011;69234;47.446;21.636;2023-07-13T01:07:03;19.77;;;19.77;;
79751;SDS011;69234;47.446;21.636;2023-07-13T01:07:37;20.67;;;20.67;;
79751;SDS011;69234;47.446;21.636;2023-07-13T01:08:10;20.93;;;20.93;;
79751;SDS011;69234;47.446;21.636;2023-07-13T01:08:41;20.33;;;20.33;;
79751;SDS011;69234;47.446;21.636;2023-07-13T01:09:12;19.70;;;19.70;;
79751;SDS011;69234;47.446;21.636;2023-07-13T01:09:44;19.33;;;19.33;;
79751;SDS011;69234;47.446;21.636;2023-07-13T01:10:15;19.53;;;19.53;;
79751;SDS011;69234;47.446;21.636;2023-07-13T01:10:51;19.97;;;19.97;;
79751;SDS011;69234;47.446;21.636;2023-07-13T01:11:24;20.97;;;20.97;;
79751;SDS011;69234;47.446;21.636;2023-07-13T01:11:54;20.47;;;20.47;;
79751;SDS011;69234;47.446;21.636;2023-07-13T01:12:25;20.53;;;20.53;;
79751;SDS011;69234;47.446;21.636;2023-07-13T01:12:57;19.67;;;19.67;;
79751;SDS011;69234;47.446;21.636;2023-07-13T01:13:29;19.90;;;19.90;;
79751;SDS011;69234;47.446;21.636;2023-07-13T01:14:00;20.80;;;20.80;;
79751;SDS011;69234;47.446;21.636;2023-07-13T01:14:32;19.93;;;19.93;;
79751;SDS011;69234;47.446;21.636;2023-07-13T01:15:04;19.23;;;19.23;;
79751;SDS011;69234;47.446;21.636;2023-07-13T01:16:17;21.53;;;21.53;;
79751;SDS011;69234;47.446;21.636;2023-07-13T01:16:57;20.80;;;20.80;;
79751;SDS011;69234;47.446;21.636;2023-07-13T01:17:31;20.13;;;20.13;;
79751;SDS011;69234;47.446;21.636;2023-07-13T01:18:05;20.97;;;20.97;;
79751;SDS011;69234;47.446;21.636;2023-07-13T01:18:41;19.60;;;19.60;;
79751;SDS011;69234;47.446;21.636;2023-07-13T01:20:06;20.60;;;20.60;;
79751;SDS011;69234;47.446;21.636;2023-07-13T01:20:39;19.63;;;19.63;;
79751;SDS011;69234;47.446;21.636;2023-07-13T01:21:10;19.60;;;19.60;;
79751;SDS011;69234;47.446;21.636;2023-07-13T01:21:44;20.27;;;20.27;;
79751;SDS011;69234;47.446;21.636;2023-07-13T01:22:21;19.80;;;19.80;;
79751;SDS011;69234;47.446;21.636;2023-07-13T01:22:56;20.33;;;20.33;;
79751;SDS011;69234;47.446;21.636;2023-07-13T01:23:30;20.97;;;20.97;;
79751;SDS011;69234;47.446;21.636;2023-07-13T01:24:02;20.43;;;20.43;;
79751;SDS011;69234;47.446;21.636;2023-07-13T01:24:33;20.57;;;20.57;;
79751;SDS011;69234;47.446;21.636;2023-07-13T01:25:06;21.90;;;21.90;;
79751;SDS011;69234;47.446;21.636;2023-07-13T01:25:38;21.03;;;21.03;;
79751;SDS011;69234;47.446;21.636;2023-07-13T01:26:09;20.47;;;20.47;;
79751;SDS011;69234;47.446;21.636;2023-07-13T01:26:41;19.37;;;19.37;;
79751;SDS011;69234;47.446;21.636;2023-07-13T01:27:14;19.93;;;19.93;;
79751;SDS011;69234;47.446;21.636;2023-07-13T01:27:53;19.80;;;19.80;;
79751;SDS011;69234;47.446;21.636;2023-07-13T01:28:25;20.17;;;20.17;;
79751;SDS011;69234;47.446;21.636;2023-07-13T01:28:58;21.43;;;21.43;;
79751;SDS011;69234;47.446;21.636;2023-07-13T01:29:30;20.93;;;20.93;;
79751;SDS011;69234;47.446;21.636;2023-07-13T01:30:03;20.67;;;20.67;;
79751;SDS011;69234;47.446;21.636;2023-07-13T01:30:39;19.90;;;19.90;;
79751;SDS011;69234;47.446;21.636;2023-07-13T01:31:11;20.60;;;20.60;;
79751;SDS011;69234;47.446;21.636;2023-07-13T01:31:42;20.57;;;20.57;;
79751;SDS011;69234;47.446;21.636;2023-07-13T01:32:22;20.77;;;20.77;;
79751;SDS011;69234;47.446;21.636;2023-07-13T01:32:54;20.60;;;20.60;;
79751;SDS011;69234;47.446;21.636;2023-07-13T01:33:25;19.73;;;19.73;;
79751;SDS011;69234;47.446;21.636;2023-07-13T01:33:57;20.30;;;20.30;;
79751;SDS011;69234;47.446;21.636;2023-07-13T01:34:28;20.00;;;20.00;;
79751;SDS011;69234;47.446;21.636;2023-07-13T01:34:59;20.03;;;20.03;;
79751;SDS011;69234;47.446;21.636;2023-07-13T01:35:30;20.53;;;20.53;;
79751;SDS011;69234;47.446;21.636;2023-07-13T01:36:01;19.90;;;19.90;;
79751;SDS011;69234;47.446;21.636;2023-07-13T01:36:32;19.67;;;19.67;;
79751;SDS011;69234;47.446;21.636;2023-07-13T01:37:04;19.77;;;19.77;;
79751;SDS011;69234;47.446;21.636;2023-07-13T01:37:35;20.37;;;20.37;;
79751;SDS011;69234;47.446;21.636;2023-07-13T01:38:06;20.60;;;20.60;;
79751;SDS011;69234;47.446;21.636;2023-07-13T01:38:38;20.43;;;20.43;;
79751;SDS011;69234;47.446;21.636;2023-07-13T01:39:11;20.47;;;20.47;;
79751;SDS011;69234;47.446;21.636;2023-07-13T01:39:42;21.13;;;21.13;;
79751;SDS011;69234;47.446;21.636;2023-07-13T01:40:13;21.93;;;21.93;;
79751;SDS011;69234;47.446;21.636;2023-07-13T01:40:44;20.37;;;20.37;;
79751;SDS011;69234;47.446;21.636;2023-07-13T01:41:15;20.33;;;20.33;;
79751;SDS011;69234;47.446;21.636;2023-07-13T01:41:46;21.43;;;21.43;;
79751;SDS011;69234;47.446;21.636;2023-07-13T01:42:17;20.60;;;20.60;;
79751;SDS011;69234;47.446;21.636;2023-07-13T01:42:48;20.37;;;20.37;;
79751;SDS011;69234;47.446;21.636;2023-07-13T01:43:19;20.80;;;20.80;;
79751;SDS011;69234;47.446;21.636;2023-07-13T01:43:51;20.33;;;20.33;;
79751;SDS011;69234;47.446;21.636;2023-07-13T01:44:22;20.40;;;20.40;;
79751;SDS011;69234;47.446;21.636;2023-07-13T01:44:53;20.50;;;20.50;;
79751;SDS011;69234;47.446;21.636;2023-07-13T01:45:24;20.53;;;20.53;;
79751;SDS011;69234;47.446;21.636;2023-07-13T01:45:55;20.40;;;20.40;;
79751;SDS011;69234;47.446;21.636;2023-07-13T01:46:26;18.97;;;18.97;;
79751;SDS011;69234;47.446;21.636;2023-07-13T01:46:57;19.53;;;19.53;;
79751;SDS011;69234;47.446;21.636;2023-07-13T01:47:29;18.93;;;18.93;;
79751;SDS011;69234;47.446;21.636;2023-07-13T01:48:01;18.90;;;18.90;;
79751;SDS011;69234;47.446;21.636;2023-07-13T01:48:31;19.43;;;19.43;;
79751;SDS011;69234;47.446;21.636;2023-07-13T01:49:03;20.60;;;20.60;;
79751;SDS011;69234;47.446;21.636;2023-07-13T01:49:34;19.93;;;19.93;;
79751;SDS011;69234;47.446;21.636;2023-07-13T01:50:06;19.47;;;19.47;;
79751;SDS011;69234;47.446;21.636;2023-07-13T01:50:37;19.70;;;19.70;;
79751;SDS011;69234;47.446;21.636;2023-07-13T01:51:08;20.27;;;20.27;;
79751;SDS011;69234;47.446;21.636;2023-07-13T01:51:39;20.50;;;20.50;;
79751;SDS011;69234;47.446;21.636;2023-07-13T01:52:10;21.07;;;21.07;;
79751;SDS011;69234;47.446;21.636;2023-07-13T01:52:41;20.37;;;20.37;;
79751;SDS011;69234;47.446;21.636;2023-07-13T01:53:12;20.20;;;20.20;;
79751;SDS011;69234;47.446;21.636;2023-07-13T01:53:44;19.63;;;19.63;;
79751;SDS011;69234;47.446;21.636;2023-07-13T01:54:15;20.83;;;20.83;;
79751;SDS011;69234;47.446;21.636;2023-07-13T01:54:47;19.50;;;19.50;;
79751;SDS011;69234;47.446;21.636;2023-07-13T01:55:21;19.90;;;19.90;;
79751;SDS011;69234;47.446;21.636;2023-07-13T01:55:52;20.37;;;20.37;;
79751;SDS011;69234;47.446;21.636;2023-07-13T01:56:24;20.50;;;20.50;;
79751;SDS011;69234;47.446;21.636;2023-07-13T01:56:54;20.43;;;20.43;;
79751;SDS011;69234;47.446;21.636;2023-07-13T01:57:25;19.50;;;19.50;;
79751;SDS011;69234;47.446;21.636;2023-07-13T01:57:57;20.23;;;20.23;;
79751;SDS011;69234;47.446;21.636;2023-07-13T01:58:28;19.43;;;19.43;;
79751;SDS011;69234;47.446;21.636;2023-07-13T01:58:59;19.33;;;19.33;;
79751;SDS011;69234;47.446;21.636;2023-07-13T01:59:31;19.70;;;19.70;;
79751;SDS011;69234;47.446;21.636;2023-07-13T02:00:03;20.93;;;20.93;;
79751;SDS011;69234;47.446;21.636;2023-07-13T02:00:47;20.70;;;20.70;;
79751;SDS011;69234;47.446;21.636;2023-07-13T02:01:20;20.07;;;20.07;;
79751;SDS011;69234;47.446;21.636;2023-07-13T02:01:51;18.90;;;18.90;;
79751;SDS011;69234;47.446;21.636;2023-07-13T02:02:22;19.20;;;19.20;;
79751;SDS011;69234;47.446;21.636;2023-07-13T02:02:53;20.13;;;20.13;;
79751;SDS011;69234;47.446;21.636;2023-07-13T02:03:24;19.93;;;19.93;;
79751;SDS011;69234;47.446;21.636;2023-07-13T02:03:55;20.23;;;20.23;;
79751;SDS011;69234;47.446;21.636;2023-07-13T02:04:26;19.83;;;19.83;;
79751;SDS011;69234;47.446;21.636;2023-07-13T02:04:57;20.13;;;20.13;;
79751;SDS011;69234;47.446;21.636;2023-07-13T02:05:28;19.57;;;19.57;;
79751;SDS011;69234;47.446;21.636;2023-07-13T02:05:59;20.37;;;20.37;;
79751;SDS011;69234;47.446;21.636;2023-07-13T02:06:30;20.53;;;20.53;;
79751;SDS011;69234;47.446;21.636;2023-07-13T02:07:01;20.00;;;20.00;;
79751;SDS011;69234;47.446;21.636;2023-07-13T02:07:33;19.60;;;19.60;;
79751;SDS011;69234;47.446;21.636;2023-07-13T02:08:04;20.67;;;20.67;;
79751;SDS011;69234;47.446;21.636;2023-07-13T02:08:36;19.47;;;19.47;;
79751;SDS011;69234;47.446;21.636;2023-07-13T02:09:07;19.50;;;19.50;;
79751;SDS011;69234;47.446;21.636;2023-07-13T02:09:38;19.67;;;19.67;;
79751;SDS011;69234;47.446;21.636;2023-07-13T02:10:10;20.00;;;20.00;;
79751;SDS011;69234;47.446;21.636;2023-07-13T02:10:42;19.43;;;19.43;;
79751;SDS011;69234;47.446;21.636;2023-07-13T02:11:13;19.50;;;19.50;;
79751;SDS011;69234;47.446;21.636;2023-07-13T02:11:44;19.17;;;19.17;;
79751;SDS011;69234;47.446;21.636;2023-07-13T02:12:15;19.40;;;19.40;;
79751;SDS011;69234;47.446;21.636;2023-07-13T02:12:47;18.67;;;18.67;;
79751;SDS011;69234;47.446;21.636;2023-07-13T02:13:20;19.37;;;19.37;;
79751;SDS011;69234;47.446;21.636;2023-07-13T02:13:51;20.03;;;20.03;;
79751;SDS011;69234;47.446;21.636;2023-07-13T02:14:22;20.23;;;20.23;;
79751;SDS011;69234;47.446;21.636;2023-07-13T02:14:53;19.93;;;19.93;;
79751;SDS011;69234;47.446;21.636;2023-07-13T02:15:24;20.20;;;20.20;;
79751;SDS011;69234;47.446;21.636;2023-07-13T02:15:55;19.47;;;19.47;;
79751;SDS011;69234;47.446;21.636;2023-07-13T02:16:26;20.77;;;20.77;;
79751;SDS011;69234;47.446;21.636;2023-07-13T02:16:57;20.53;;;20.53;;
79751;SDS011;69234;47.446;21.636;2023-07-13T02:17:28;19.60;;;19.60;;
79751;SDS011;69234;47.446;21.636;2023-07-13T02:17:59;19.87;;;19.87;;
79751;SDS011;69234;47.446;21.636;2023-07-13T02:18:30;19.43;;;19.43;;
79751;SDS011;69234;47.446;21.636;2023-07-13T02:19:01;19.83;;;19.83;;
79751;SDS011;69234;47.446;21.636;2023-07-13T02:19:32;19.53;;;19.53;;
79751;SDS011;69234;47.446;21.636;2023-07-13T02:20:03;20.40;;;20.40;;
79751;SDS011;69234;47.446;21.636;2023-07-13T02:20:35;19.50;;;19.50;;
79751;SDS011;69234;47.446;21.636;2023-07-13T02:21:06;19.23;;;19.23;;
79751;SDS011;69234;47.446;21.636;2023-07-13T02:21:37;19.30;;;19.30;;
79751;SDS011;69234;47.446;21.636;2023-07-13T02:22:08;20.73;;;20.73;;
79751;SDS011;69234;47.446;21.636;2023-07-13T02:22:39;20.00;;;20.00;;
79751;SDS011;69234;47.446;21.636;2023-07-13T02:23:10;20.07;;;20.07;;
79751;SDS011;69234;47.446;21.636;2023-07-13T02:23:43;20.47;;;20.47;;
79751;SDS011;69234;47.446;21.636;2023-07-13T02:24:14;20.27;;;20.27;;
79751;SDS011;69234;47.446;21.636;2023-07-13T02:24:47;19.87;;;19.87;;
79751;SDS011;69234;47.446;21.636;2023-07-13T02:25:22;20.30;;;20.30;;
79751;SDS011;69234;47.446;21.636;2023-07-13T02:25:56;20.20;;;20.20;;
79751;SDS011;69234;47.446;21.636;2023-07-13T02:26:27;20.37;;;20.37;;
79751;SDS011;69234;47.446;21.636;2023-07-13T02:26:59;19.97;;;19.97;;
79751;SDS011;69234;47.446;21.636;2023-07-13T02:27:30;19.93;;;19.93;;
79751;SDS011;69234;47.446;21.636;2023-07-13T02:28:01;19.70;;;19.70;;
79751;SDS011;69234;47.446;21.636;2023-07-13T02:28:32;19.60;;;19.60;;
79751;SDS011;69234;47.446;21.636;2023-07-13T02:29:03;20.07;;;20.07;;
79751;SDS011;69234;47.446;21.636;2023-07-13T02:29:34;21.17;;;21.17;;
79751;SDS011;69234;47.446;21.636;2023-07-13T02:30:05;21.10;;;21.10;;
79751;SDS011;69234;47.446;21.636;2023-07-13T02:30:37;20.37;;;20.37;;
79751;SDS011;69234;47.446;21.636;2023-07-13T02:31:10;19.80;;;19.80;;
79751;SDS011;69234;47.446;21.636;2023-07-13T02:31:44;21.17;;;21.17;;
79751;SDS011;69234;47.446;21.636;2023-07-13T02:32:15;20.60;;;20.60;;
79751;SDS011;69234;47.446;21.636;2023-07-13T02:32:46;20.47;;;20.47;;
79751;SDS011;69234;47.446;21.636;2023-07-13T02:33:17;20.27;;;20.27;;
79751;SDS011;69234;47.446;21.636;2023-07-13T02:33:48;20.63;;;20.63;;
79751;SDS011;69234;47.446;21.636;2023-07-13T02:34:18;21.30;;;21.30;;
79751;SDS011;69234;47.446;21.636;2023-07-13T02:34:49;20.73;;;20.73;;
79751;SDS011;69234;47.446;21.636;2023-07-13T02:35:20;20.50;;;20.50;;
79751;SDS011;69234;47.446;21.636;2023-07-13T02:35:51;21.03;;;21.03;;
79751;SDS011;69234;47.446;21.636;2023-07-13T02:36:22;20.43;;;20.43;;
79751;SDS011;69234;47.446;21.636;2023-07-13T02:36:53;19.47;;;19.47;;
79751;SDS011;69234;47.446;21.636;2023-07-13T02:37:24;19.80;;;19.80;;
79751;SDS011;69234;47.446;21.636;2023-07-13T02:37:55;20.70;;;20.70;;
79751;SDS011;69234;47.446;21.636;2023-07-13T02:38:27;20.57;;;20.57;;
79751;SDS011;69234;47.446;21.636;2023-07-13T02:39:03;20.83;;;20.83;;
79751;SDS011;69234;47.446;21.636;2023-07-13T02:39:39;20.67;;;20.67;;
79751;SDS011;69234;47.446;21.636;2023-07-13T02:40:11;21.27;;;21.27;;
79751;SDS011;69234;47.446;21.636;2023-07-13T02:40:42;21.57;;;21.57;;
79751;SDS011;69234;47.446;21.636;2023-07-13T02:41:13;20.17;;;20.17;;
79751;SDS011;69234;47.446;21.636;2023-07-13T02:41:44;20.63;;;20.63;;
79751;SDS011;69234;47.446;21.636;2023-07-13T02:42:17;21.20;;;21.20;;
79751;SDS011;69234;47.446;21.636;2023-07-13T02:42:48;20.77;;;20.77;;
79751;SDS011;69234;47.446;21.636;2023-07-13T02:43:19;20.37;;;20.37;;
79751;SDS011;69234;47.446;21.636;2023-07-13T02:43:51;20.37;;;20.37;;
79751;SDS011;69234;47.446;21.636;2023-07-13T02:44:22;20.10;;;20.10;;
79751;SDS011;69234;47.446;21.636;2023-07-13T02:44:53;20.97;;;20.97;;
79751;SDS011;69234;47.446;21.636;2023-07-13T02:45:24;22.03;;;22.03;;
79751;SDS011;69234;47.446;21.636;2023-07-13T02:45:55;21.33;;;21.33;;
79751;SDS011;69234;47.446;21.636;2023-07-13T02:46:26;21.13;;;21.13;;
79751;SDS011;69234;47.446;21.636;2023-07-13T02:47:00;20.80;;;20.80;;
79751;SDS011;69234;47.446;21.636;2023-07-13T02:47:31;21.33;;;21.33;;
79751;SDS011;69234;47.446;21.636;2023-07-13T02:48:03;20.87;;;20.87;;
79751;SDS011;69234;47.446;21.636;2023-07-13T02:48:35;20.73;;;20.73;;
79751;SDS011;69234;47.446;21.636;2023-07-13T02:49:08;21.03;;;21.03;;
79751;SDS011;69234;47.446;21.636;2023-07-13T02:49:39;21.33;;;21.33;;
79751;SDS011;69234;47.446;21.636;2023-07-13T02:50:10;20.07;;;20.07;;
79751;SDS011;69234;47.446;21.636;2023-07-13T02:50:41;20.83;;;20.83;;
79751;SDS011;69234;47.446;21.636;2023-07-13T02:51:12;20.37;;;20.37;;
79751;SDS011;69234;47.446;21.636;2023-07-13T02:51:43;20.20;;;20.20;;
79751;SDS011;69234;47.446;21.636;2023-07-13T02:52:14;20.50;;;20.50;;
79751;SDS011;69234;47.446;21.636;2023-07-13T02:52:45;21.23;;;21.23;;
79751;SDS011;69234;47.446;21.636;2023-07-13T02:53:16;20.93;;;20.93;;
79751;SDS011;69234;47.446;21.636;2023-07-13T02:53:47;20.57;;;20.57;;
79751;SDS011;69234;47.446;21.636;2023-07-13T02:54:18;20.63;;;20.63;;
79751;SDS011;69234;47.446;21.636;2023-07-13T02:54:49;20.33;;;20.33;;
79751;SDS011;69234;47.446;21.636;2023-07-13T02:55:20;20.67;;;20.67;;
79751;SDS011;69234;47.446;21.636;2023-07-13T02:55:51;20.97;;;20.97;;
79751;SDS011;69234;47.446;21.636;2023-07-13T02:56:22;20.70;;;20.70;;
79751;SDS011;69234;47.446;21.636;2023-07-13T02:56:56;20.33;;;20.33;;
79751;SDS011;69234;47.446;21.636;2023-07-13T02:57:27;20.57;;;20.57;;
79751;SDS011;69234;47.446;21.636;2023-07-13T02:57:58;20.40;;;20.40;;
79751;SDS011;69234;47.446;21.636;2023-07-13T02:58:29;20.53;;;20.53;;
79751;SDS011;69234;47.446;21.636;2023-07-13T02:59:00;21.13;;;21.13;;
79751;SDS011;69234;47.446;21.636;2023-07-13T02:59:32;20.43;;;20.43;;
79751;SDS011;69234;47.446;21.636;2023-07-13T03:00:04;20.40;;;20.40;;
79751;SDS011;69234;47.446;21.636;2023-07-13T03:00:37;20.60;;;20.60;;
79751;SDS011;69234;47.446;21.636;2023-07-13T03:01:11;19.73;;;19.73;;
79751;SDS011;69234;47.446;21.636;2023-07-13T03:01:42;20.37;;;20.37;;
79751;SDS011;69234;47.446;21.636;2023-07-13T03:02:14;20.73;;;20.73;;
79751;SDS011;69234;47.446;21.636;2023-07-13T03:02:46;20.83;;;20.83;;
79751;SDS011;69234;47.446;21.636;2023-07-13T03:03:17;20.00;;;20.00;;
79751;SDS011;69234;47.446;21.636;2023-07-13T03:03:48;21.13;;;21.13;;
79751;SDS011;69234;47.446;21.636;2023-07-13T03:04:21;20.53;;;20.53;;
79751;SDS011;69234;47.446;21.636;2023-07-13T03:04:52;21.80;;;21.80;;
79751;SDS011;69234;47.446;21.636;2023-07-13T03:05:25;21.30;;;21.30;;
79751;SDS011;69234;47.446;21.636;2023-07-13T03:06:00;21.23;;;21.23;;
79751;SDS011;69234;47.446;21.636;2023-07-13T03:06:40;20.23;;;20.23;;
79751;SDS011;69234;47.446;21.636;2023-07-13T03:07:12;20.93;;;20.93;;
79751;SDS011;69234;47.446;21.636;2023-07-13T03:07:44;20.80;;;20.80;;
79751;SDS011;69234;47.446;21.636;2023-07-13T03:08:15;20.43;;;20.43;;